KLAF/LAF METAR and TAF weather

Enter ICAO airport designator
Station Type Date Time Source
KLAF METAR 2020/11/27 02:54 UTC NOAA

KLAF 270254Z AUTO 22005KT 10SM OVC021 08/04 A3009 RMK AO2 SLP190 T00780039 58001


Station Type Date Time Source
KLAF Decoded METAR 2020/11/27 02:54 UTC NOAA

LAFAYETTE PURDUE UNIV AIRPORT , IN, United States (KLAF) 40-25N 86-57W 182M
Nov 26, 2020 - 09:54 PM EST / 2020.11.27 0254 UTC
Wind: from the SW (220 degrees) at 6 MPH (5 KT):0
Visibility: 10 mile(s):0
Sky conditions: overcast
Temperature: 46.0 F (7.8 C)
Dew Point: 39.0 F (3.9 C)
Relative Humidity: 76%
Pressure (altimeter): 30.09 in. Hg (1018 hPa)
Pressure tendency: 0.00 inches (0.1 hPa) lower than three hours ago
ob: KLAF 270254Z AUTO 22005KT 10SM OVC021 08/04 A3009 RMK AO2 SLP190 T00780039 58001
cycle: 3

Station Type Date Time Source
KLAF TAF 2020/11/27 02:24 UTC NOAA

TAF
AMD KLAF 270221Z 2702/2724 22005KT P6SM OVC020
FM270400 22004KT P6SM OVC015
FM271200 VRB04KT P6SM BKN010
FM272100 28006KT P6SM BKN030
FM272200 28006KT P6SM SCT040
AMD LTD TO CLD VIS AND WIND TIL 271400

Example: see airport list